WS Maaseik 1 Meer informatie WS Maaseik 1


WS Maaseik 2 Meer informatie WS Maaseik 2


Regen radar Meer informatie rain snow radar


Bezoek onze andere website:

Vorige versie
weerstation Maaseik


Bezoek ook eens deze sites:

Weerstation Geleen



We konden geen weer-waarchuwingen ophalen. Ga rechtstreeks naar de Meteoalarm site : www.meteoalarm.eu en controleer daar .

METAR rapporten vliegvelden

   
EBBR - Brussels International Airport, Belgium
Afstand tot: W 14 km
Gewijzigd: 28-01-2022 17:50
Gedeeltelijk bewolkt  
Gedeeltelijk bewolkt  
   Wind: ZZW 14.8 km/h
Wind: ZZW 14.8 km/h
Temperatuur: 5°C
Voelt als: 2°C
Dauwpunt: 3°C
Vochtigheid: 87%
Barometer: 1034 hPa
Bewolking: Partly Cloudy
Zicht: 7 km
Bewolking: Gedeeltelijk bewolkt 800 ft
EBBR 281650Z 20008KT 7000 SCT008 05/03 Q1034
EBBE - Beauvechain (Bevekom), Belgium
Afstand tot: ZZO 17 km
Gewijzigd: 28-01-2022 17:55
Nevel, Gedeeltelijk bewolkt  
Nevel, Gedeeltelijk bewolkt  
   Wind: Zuiden 14.8 km/h
Wind: Zuiden 14.8 km/h
Temperatuur: 4°C
Voelt als: 1°C
Dauwpunt: 3°C
Vochtigheid: 93%
Barometer: 1034 hPa
Bewolking: Partly Cloudy
Zicht: 3.5 km
Bewolking: Licht bewolkt 500 ft,
Gedeeltelijk bewolkt 700 ft
EBBE 281655Z AUTO 18008KT 3500 BR FEW005/// SCT007/// 04/03 Q1034 YLO
EBDT - Schaffen, Belgium
Afstand tot: ONO 29 km
Gewijzigd: 28-01-2022 17:55
Bewolking  
Bewolking  
   Wind: ZZW 11.1 km/h
Wind: ZZW 11.1 km/h
Temperatuur: 5°C
Voelt als: 2°C
Dauwpunt: 4°C
Vochtigheid: 93%
Barometer: 1034 hPa
Bewolking: Overcast
Zicht: 6 km
Bewolking: Bewolking 900 ft
EBDT 281655Z AUTO 20006KT 6000 OVC009/// 05/04 Q1034 GRN
EBAW - Antwerp/Deurne, Belgium
Afstand tot: NNW 38 km
Gewijzigd: 28-01-2022 17:50
Nevel, Grotendeels bewolkt  
Nevel, Grotendeels bewolkt  
   Wind: Zuiden 11.1 km/h
Wind: Zuiden 11.1 km/h
Temperatuur: 5°C
Voelt als: 2°C
Dauwpunt: 4°C
Vochtigheid: 93%
Barometer: 1034 hPa
Bewolking: Mostly Cloudy
Zicht: 3 km
Bewolking: Grotendeels bewolkt 400 ft
EBAW 281650Z 19006KT 3000 BR BKN004 05/04 Q1034 NOSIG
EBCI - Charleroi/Gosselies, Belgium
Afstand tot: ZZW 51 km
Gewijzigd: 28-01-2022 17:50
Nevel, Grotendeels bewolkt  
Nevel, Grotendeels bewolkt  
   Wind: ZZW 18.5 km/h
Wind: ZZW 18.5 km/h
Temperatuur: 3°C
Voelt als: -1°C
Dauwpunt: 2°C
Vochtigheid: 93%
Barometer: 1035 hPa
Bewolking: Mostly Cloudy
Zicht: 5 km
Bewolking: Licht bewolkt 400 ft,
Grotendeels bewolkt 600 ft
EBCI 281650Z 21010KT 5000 BR FEW004 BKN006 03/02 Q1035 NOSIG
EBLG - Bierset/Liege, Belgium
Afstand tot: OZO 60 km
Gewijzigd: 28-01-2022 17:50
Grotendeels bewolkt  
Grotendeels bewolkt  
   Wind: ZW 14.8 km/h
Wind: ZW 14.8 km/h
Temperatuur: 4°C
Voelt als: 1°C
Dauwpunt: 3°C
Vochtigheid: 93%
Barometer: 1034 hPa
Bewolking: Mostly Cloudy
Zicht: 9 km
Bewolking: Gedeeltelijk bewolkt 1200 ft,
Grotendeels bewolkt 1400 ft
EBLG 281650Z 23008KT 9000 SCT012 BKN014 04/03 Q1034 NOSIG

Script ontwikkeld door  Saratoga-weather.org Aangepast voor de template door  Weerstation Leuven

U vindt ons ook hier:

Het Weer Aktueel

Weather Underground

AWEKAS